Time;durP1;ratioP1;P1;durP2;ratioP2;P2;SDS_P1;SDS_P2;PMS_P1;PMS_P2;Temp;Humidity;BMP_temperature;BMP_pressure;BME280_temperature;BME280_humidity;BME280_pressure;Samples;Min_cycle;Max_cycle;Signal;HPM_P1;HPM_P2
2023/12/02 00:02:24;;;;;;;22.80;12.30;;;1.30;67.90;;;;;;4960214;28;46717;-71
2023/12/02 00:04:49;;;;;;;17.97;10.80;;;1.30;67.90;;;;;;4976292;28;46465;-72
2023/12/02 00:07:15;;;;;;;19.57;11.43;;;1.30;67.70;;;;;;4955615;28;48178;-71
2023/12/02 00:09:41;;;;;;;17.30;10.30;;;1.30;68.80;;;;;;4958730;28;46301;-71
2023/12/02 00:12:06;;;;;;;18.17;11.00;;;1.30;67.60;;;;;;4947412;28;46530;-71
2023/12/02 00:14:33;;;;;;;21.90;12.20;;;1.30;67.60;;;;;;4959932;28;46404;-70
2023/12/02 00:16:58;;;;;;;31.35;15.30;;;1.30;67.80;;;;;;4961403;28;48884;-71
2023/12/02 00:19:27;;;;;;;39.23;19.37;;;1.30;67.70;;;;;;4959000;28;46515;-71
2023/12/02 00:21:52;;;;;;;17.73;10.20;;;1.30;67.60;;;;;;4971499;28;46484;-71
2023/12/02 00:24:18;;;;;;;20.87;12.00;;;1.30;67.80;;;;;;4960767;28;46688;-71
2023/12/02 00:26:47;;;;;;;38.10;15.60;;;1.30;67.70;;;;;;4959817;28;46366;-73
2023/12/02 00:29:12;;;;;;;21.83;11.95;;;1.30;67.70;;;;;;4960953;28;46433;-72
2023/12/02 00:31:38;;;;;;;23.43;12.60;;;1.30;67.70;;;;;;4962538;28;46434;-72
2023/12/02 00:34:04;;;;;;;20.60;12.67;;;1.40;67.60;;;;;;4955107;28;46873;-73
2023/12/02 00:36:32;;;;;;;15.73;9.97;;;1.40;67.50;;;;;;4960400;28;47763;-71
2023/12/02 00:38:57;;;;;;;13.73;9.05;;;1.40;67.50;;;;;;4957428;28;46480;-73
2023/12/02 00:41:23;;;;;;;14.50;9.57;;;1.20;67.50;;;;;;4964836;28;46413;-71
2023/12/02 00:43:49;;;;;;;18.17;10.83;;;1.20;68.10;;;;;;4964549;28;46338;-72
2023/12/02 00:46:14;;;;;;;18.87;11.73;;;1.10;68.30;;;;;;4962607;28;46463;-70
2023/12/02 00:48:40;;;;;;;19.13;8.97;;;1.10;68.40;;;;;;4960688;28;46730;-70
2023/12/02 00:51:06;;;;;;;13.43;8.40;;;1.00;68.40;;;;;;4961759;28;45922;-70
2023/12/02 00:53:32;;;;;;;15.38;9.55;;;1.00;68.60;;;;;;4959149;28;46336;-71
2023/12/02 00:55:57;;;;;;;14.30;8.27;;;1.00;68.90;;;;;;4956939;28;48770;-71
2023/12/02 00:58:23;;;;;;;13.40;8.03;;;1.00;68.90;;;;;;4961560;28;46447;-73
2023/12/02 01:00:52;;;;;;;13.87;8.50;;;1.00;68.80;;;;;;4960874;28;46729;-72
2023/12/02 01:03:17;;;;;;;15.57;9.00;;;1.00;68.70;;;;;;4961766;28;46460;-72
2023/12/02 01:05:43;;;;;;;15.23;9.07;;;1.00;68.70;;;;;;4965092;28;47358;-71
2023/12/02 01:08:09;;;;;;;15.80;9.87;;;1.00;68.70;;;;;;4961292;28;46994;-71
2023/12/02 01:10:34;;;;;;;14.13;8.50;;;0.90;68.70;;;;;;4960484;28;46334;-70
2023/12/02 01:13:00;;;;;;;13.87;8.43;;;0.90;68.70;;;;;;4957827;28;46743;-70
2023/12/02 01:15:26;;;;;;;17.40;9.50;;;0.90;68.70;;;;;;4960789;28;47983;-70
2023/12/02 01:17:51;;;;;;;16.47;9.63;;;0.90;68.80;;;;;;4958498;28;47110;-71
2023/12/02 01:20:17;;;;;;;12.80;8.03;;;0.90;68.80;;;;;;4961285;28;46733;-70
2023/12/02 01:22:42;;;;;;;15.90;10.33;;;0.90;68.90;;;;;;4960281;28;45988;-70
2023/12/02 01:25:08;;;;;;;16.10;9.87;;;0.90;68.90;;;;;;4963591;28;47907;-69
2023/12/02 01:27:34;;;;;;;19.97;10.23;;;1.00;68.80;;;;;;4956573;28;46732;-69
2023/12/02 01:30:00;;;;;;;14.73;9.30;;;1.00;68.60;;;;;;4959867;28;46441;-68
2023/12/02 01:32:26;;;;;;;14.95;8.68;;;1.00;68.60;;;;;;4954534;28;46943;-70
2023/12/02 01:34:51;;;;;;;13.17;9.00;;;1.00;68.60;;;;;;4960581;28;48930;-70
2023/12/02 01:37:17;;;;;;;14.60;9.20;;;0.90;68.60;;;;;;4963822;28;46491;-70
2023/12/02 01:39:43;;;;;;;17.70;9.03;;;0.90;69.00;;;;;;4960571;28;46421;-69
2023/12/02 01:42:08;;;;;;;15.47;9.50;;;0.80;68.90;;;;;;4964165;28;46498;-69
2023/12/02 01:44:34;;;;;;;16.07;9.57;;;0.90;68.90;;;;;;4961946;28;48039;-70
2023/12/02 01:47:00;;;;;;;16.67;10.50;;;0.90;68.60;;;;;;4962810;28;46395;-68
2023/12/02 01:49:27;;;;;;;15.60;9.32;;;0.90;68.40;;;;;;4963479;28;46543;-70
2023/12/02 01:51:53;;;;;;;13.88;8.18;;;0.90;68.50;;;;;;4955652;28;46495;-70
2023/12/02 01:54:20;;;;;;;11.77;7.80;;;0.90;68.60;;;;;;4958722;28;47786;-69
2023/12/02 01:56:46;;;;;;;14.75;8.50;;;0.90;68.70;;;;;;4962022;28;46006;-70
2023/12/02 01:59:13;;;;;;;16.00;8.88;;;0.90;68.60;;;;;;4963661;28;46455;-70
2023/12/02 02:01:39;;;;;;;17.23;9.90;;;0.80;68.70;;;;;;4963872;28;46174;-71
2023/12/02 02:04:05;;;;;;;17.70;10.33;;;0.80;68.90;;;;;;4966123;28;47953;-70
2023/12/02 02:06:30;;;;;;;18.50;10.07;;;0.80;69.20;;;;;;4967362;28;46409;-72
2023/12/02 02:08:56;;;;;;;15.30;9.50;;;0.80;70.10;;;;;;4964704;28;46724;-70
2023/12/02 02:11:22;;;;;;;17.53;9.93;;;0.80;69.10;;;;;;4965192;28;46441;-70
2023/12/02 02:13:47;;;;;;;16.83;10.00;;;0.70;69.30;;;;;;4965804;28;49197;-70
2023/12/02 02:16:13;;;;;;;17.23;9.60;;;0.80;69.20;;;;;;4966029;28;46392;-69
2023/12/02 02:18:39;;;;;;;14.60;9.33;;;0.80;69.30;;;;;;4963561;28;46444;-70
2023/12/02 02:21:04;;;;;;;18.67;10.33;;;0.80;69.10;;;;;;4963460;28;46513;-70
2023/12/02 02:23:30;;;;;;;16.60;9.40;;;0.80;69.20;;;;;;4967339;28;46745;-68
2023/12/02 02:25:56;;;;;;;12.40;8.03;;;0.80;69.10;;;;;;4966763;28;46475;-69
2023/12/02 02:28:24;;;;;;;14.90;8.60;;;0.80;68.90;;;;;;4963071;28;46405;-68
2023/12/02 02:30:51;;;;;;;14.73;9.05;;;0.80;68.90;;;;;;4967231;28;46587;-69
2023/12/02 02:33:17;;;;;;;12.32;8.40;;;0.70;69.10;;;;;;4962446;28;47911;-69
2023/12/02 02:35:43;;;;;;;16.05;8.38;;;0.70;69.40;;;;;;4962936;28;46356;-68
2023/12/02 02:38:12;;;;;;;14.20;8.63;;;0.60;69.60;;;;;;4962152;28;46783;-70
2023/12/02 02:40:38;;;;;;;16.10;9.45;;;0.60;69.70;;;;;;4965301;28;46415;-69
2023/12/02 02:43:04;;;;;;;16.23;9.13;;;0.70;69.40;;;;;;4968138;28;48066;-70
2023/12/02 02:45:33;;;;;;;13.70;8.33;;;0.70;69.30;;;;;;4966609;28;46574;-68
2023/12/02 02:47:58;;;;;;;17.00;9.35;;;0.60;69.40;;;;;;4958023;28;46466;-70
2023/12/02 02:50:24;;;;;;;14.60;9.03;;;0.70;70.30;;;;;;4962494;28;46508;-68
2023/12/02 02:52:50;;;;;;;13.60;8.52;;;0.70;69.10;;;;;;4958709;28;48900;-68
2023/12/02 02:55:16;;;;;;;15.03;8.40;;;0.70;68.80;;;;;;4962475;28;46357;-68
2023/12/02 02:57:42;;;;;;;17.20;8.68;;;0.70;68.90;;;;;;4961346;28;46396;-68
2023/12/02 03:00:11;;;;;;;16.07;8.50;;;0.60;69.00;;;;;;4964600;28;46410;-68
2023/12/02 03:02:37;;;;;;;14.13;7.95;;;0.60;69.20;;;;;;4960629;28;48242;-68
2023/12/02 03:05:07;;;;;;;16.80;9.07;;;0.60;69.30;;;;;;4965243;28;46742;-68
2023/12/02 03:07:33;;;;;;;12.80;8.23;;;0.50;69.30;;;;;;4962824;28;46643;-66
2023/12/02 03:09:59;;;;;;;15.27;8.95;;;0.50;69.80;;;;;;4973992;28;46447;-67
2023/12/02 03:12:28;;;;;;;16.23;9.25;;;0.60;69.80;;;;;;4965483;28;48144;-67
2023/12/02 03:14:55;;;;;;;16.05;9.43;;;0.60;69.60;;;;;;4966366;28;46388;-68
2023/12/02 03:17:21;;;;;;;13.25;7.97;;;0.50;69.60;;;;;;4962787;28;46535;-67
2023/12/02 03:19:47;;;;;;;17.05;9.02;;;0.60;69.40;;;;;;4966015;28;45980;-67
2023/12/02 03:22:13;;;;;;;14.52;8.77;;;0.60;69.20;;;;;;4966526;28;46354;-68
2023/12/02 03:24:39;;;;;;;14.23;8.80;;;0.70;68.90;;;;;;4965528;28;46675;-66
2023/12/02 03:27:05;;;;;;;14.50;8.10;;;0.70;69.90;;;;;;4965964;28;46485;-68
2023/12/02 03:29:31;;;;;;;14.40;8.87;;;0.60;68.80;;;;;;4963401;28;46077;-68
2023/12/02 03:31:56;;;;;;;14.83;7.90;;;0.60;69.10;;;;;;4979245;28;47746;-68
2023/12/02 03:34:22;;;;;;;12.70;7.70;;;0.50;70.70;;;;;;4961458;28;46472;-67
2023/12/02 03:36:47;;;;;;;13.97;7.77;;;0.50;69.80;;;;;;4966444;28;46423;-68
2023/12/02 03:39:13;;;;;;;11.63;7.20;;;0.50;69.80;;;;;;4961694;28;46465;-67
2023/12/02 03:41:42;;;;;;;18.60;8.80;;;0.50;69.80;;;;;;4961962;28;49272;-67
2023/12/02 03:44:11;;;;;;;18.13;9.90;;;0.40;69.70;;;;;;4963620;28;46497;-67
2023/12/02 03:46:37;;;;;;;16.40;8.35;;;0.40;69.70;;;;;;4961723;28;46485;-68
2023/12/02 03:49:03;;;;;;;18.80;9.70;;;0.50;69.70;;;;;;4968237;28;46668;-68
2023/12/02 03:51:29;;;;;;;15.25;9.15;;;0.50;69.60;;;;;;4962018;28;48049;-67
2023/12/02 03:53:55;;;;;;;22.35;10.25;;;0.40;69.60;;;;;;4965070;28;46542;-69
2023/12/02 03:56:21;;;;;;;18.00;10.37;;;0.40;69.70;;;;;;4965039;28;46477;-68
2023/12/02 03:58:47;;;;;;;19.00;10.07;;;0.40;69.70;;;;;;4960223;28;45948;-68
2023/12/02 04:01:13;;;;;;;19.53;11.07;;;0.40;69.70;;;;;;4961273;28;48615;-70
2023/12/02 04:03:39;;;;;;;18.02;9.55;;;0.40;69.70;;;;;;4962436;28;46523;-68
2023/12/02 04:06:05;;;;;;;21.47;10.30;;;0.40;69.70;;;;;;4962761;28;46460;-68
2023/12/02 04:08:31;;;;;;;20.73;9.90;;;0.40;69.70;;;;;;4959393;28;46438;-68
2023/12/02 04:10:57;;;;;;;19.25;9.98;;;0.30;69.60;;;;;;4963840;28;46495;-67
2023/12/02 04:13:23;;;;;;;22.63;11.50;;;0.40;69.70;;;;;;4963204;28;46747;-72
2023/12/02 04:15:52;;;;;;;18.07;10.33;;;0.30;69.60;;;;;;4956738;28;46508;-68
2023/12/02 04:18:20;;;;;;;18.02;9.57;;;0.30;69.60;;;;;;4966723;28;46490;-68
2023/12/02 04:20:46;;;;;;;17.90;9.82;;;0.30;69.60;;;;;;4963832;28;48203;-68
2023/12/02 04:23:12;;;;;;;16.10;10.27;;;0.30;69.60;;;;;;4960776;28;46525;-68
2023/12/02 04:25:38;;;;;;;15.83;9.80;;;0.40;69.70;;;;;;4962024;28;46343;-68
2023/12/02 04:28:04;;;;;;;18.25;9.93;;;0.40;69.50;;;;;;4961266;28;46508;-68
2023/12/02 04:30:29;;;;;;;19.30;10.97;;;0.30;69.50;;;;;;4961067;28;46494;-69
2023/12/02 04:32:55;;;;;;;17.63;9.47;;;0.40;69.50;;;;;;4974356;28;46507;-69
2023/12/02 04:35:21;;;;;;;15.80;9.67;;;0.50;69.30;;;;;;4949329;28;46647;-68
2023/12/02 04:37:46;;;;;;;17.70;9.40;;;0.40;69.10;;;;;;4976132;22;46458;-70
2023/12/02 04:40:12;;;;;;;16.40;9.57;;;0.40;68.90;;;;;;4980085;28;46684;-71
2023/12/02 04:42:39;;;;;;;20.30;10.37;;;0.50;69.00;;;;;;4981049;28;46646;-70
2023/12/02 04:45:06;;;;;;;20.70;11.15;;;0.40;69.00;;;;;;4973629;28;46421;-71
2023/12/02 04:47:31;;;;;;;20.23;10.48;;;0.40;68.90;;;;;;4961622;28;46540;-71
2023/12/02 04:49:57;;;;;;;18.87;11.30;;;0.40;69.00;;;;;;4961336;28;47294;-69
2023/12/02 04:52:23;;;;;;;15.60;10.00;;;0.40;69.20;;;;;;4961473;28;46617;-68
2023/12/02 04:54:49;;;;;;;16.37;9.57;;;0.30;69.60;;;;;;4961582;28;45814;-71
2023/12/02 04:57:15;;;;;;;20.40;11.10;;;0.30;69.70;;;;;;4961104;28;46318;-71
2023/12/02 04:59:40;;;;;;;22.20;11.35;;;0.30;69.60;;;;;;4961153;28;46656;-71
2023/12/02 05:02:06;;;;;;;16.23;9.40;;;0.30;69.60;;;;;;4961574;28;46413;-69
2023/12/02 05:04:31;;;;;;;15.67;9.43;;;0.30;69.60;;;;;;4960648;28;46444;-71
2023/12/02 05:06:57;;;;;;;18.73;10.50;;;0.40;69.30;;;;;;4961543;28;45861;-71
2023/12/02 05:09:23;;;;;;;17.10;9.80;;;0.40;69.20;;;;;;4961689;28;46463;-69
2023/12/02 05:11:48;;;;;;;18.77;9.90;;;0.40;68.90;;;;;;4961744;28;46463;-70
2023/12/02 05:14:14;;;;;;;18.70;10.10;;;0.50;68.80;;;;;;4960968;28;46173;-70
2023/12/02 05:16:42;;;;;;;18.77;10.13;;;0.70;68.00;;;;;;4961492;28;46607;-70
2023/12/02 05:19:08;;;;;;;18.55;9.75;;;0.70;67.90;;;;;;4960783;28;47215;-70
2023/12/02 05:21:36;;;;;;;21.23;10.80;;;0.70;67.80;;;;;;4961502;28;46389;-70
2023/12/02 05:24:01;;;;;;;21.30;11.50;;;0.70;67.80;;;;;;4959890;28;46600;-70
2023/12/02 05:26:27;;;;;;;16.87;9.67;;;0.70;68.10;;;;;;4961097;28;45855;-69
2023/12/02 05:28:52;;;;;;;16.20;9.33;;;0.60;69.30;;;;;;4960715;28;46418;-70
2023/12/02 05:31:19;;;;;;;21.70;10.60;;;0.70;68.10;;;;;;4961238;28;46441;-70
2023/12/02 05:33:45;;;;;;;20.70;10.75;;;0.60;68.20;;;;;;4962359;28;46465;-68
2023/12/02 05:36:11;;;;;;;21.73;10.73;;;0.60;68.40;;;;;;4964363;28;46925;-70
2023/12/02 05:38:37;;;;;;;20.20;10.40;;;0.50;68.50;;;;;;4961767;28;46425;-69
2023/12/02 05:41:06;;;;;;;20.57;11.13;;;0.50;68.60;;;;;;4944711;28;46381;-70
2023/12/02 05:43:32;;;;;;;17.27;10.02;;;0.50;68.80;;;;;;4944216;28;46437;-70
2023/12/02 05:45:58;;;;;;;17.70;9.50;;;0.40;69.00;;;;;;4944323;28;46453;-70
2023/12/02 05:48:24;;;;;;;17.43;9.67;;;0.30;69.10;;;;;;4944298;28;46765;-69
2023/12/02 05:50:50;;;;;;;16.15;9.00;;;0.30;69.50;;;;;;4944697;28;46435;-70
2023/12/02 05:53:16;;;;;;;18.90;10.47;;;0.40;69.30;;;;;;4944705;28;46400;-69
2023/12/02 05:55:41;;;;;;;16.93;9.90;;;0.40;70.10;;;;;;4942888;28;46344;-69
2023/12/02 05:58:07;;;;;;;20.20;10.40;;;0.30;69.00;;;;;;4942716;28;48441;-67
2023/12/02 06:00:35;;;;;;;17.50;9.00;;;0.30;69.30;;;;;;4944181;28;46515;-69
2023/12/02 06:03:01;;;;;;;16.85;9.63;;;0.30;69.00;;;;;;4944476;28;46522;-69
2023/12/02 06:05:27;;;;;;;16.60;9.98;;;0.20;69.50;;;;;;4943344;28;46427;-69
2023/12/02 06:07:53;;;;;;;15.47;9.03;;;0.10;69.40;;;;;;4943843;28;47265;-70
2023/12/02 06:10:18;;;;;;;16.87;9.73;;;0.10;69.40;;;;;;4943919;28;46185;-69
2023/12/02 06:12:44;;;;;;;17.37;9.87;;;0.10;69.40;;;;;;4945110;28;46438;-68
2023/12/02 06:15:11;;;;;;;17.90;8.60;;;0.10;69.40;;;;;;4942640;28;46456;-70
2023/12/02 06:17:37;;;;;;;19.80;10.75;;;0.10;69.50;;;;;;4942796;28;47061;-70
2023/12/02 06:20:03;;;;;;;18.73;9.90;;;0.20;69.50;;;;;;4943743;28;46383;-69
2023/12/02 06:22:28;;;;;;;19.05;10.35;;;0.20;70.70;;;;;;4944086;28;46365;-70
2023/12/02 06:24:54;;;;;;;19.57;9.90;;;0.20;69.50;;;;;;4942764;28;46535;-69
2023/12/02 06:27:20;;;;;;;22.10;11.20;;;0.30;69.70;;;;;;4942673;28;47695;-68
2023/12/02 06:29:46;;;;;;;21.83;10.87;;;0.30;69.50;;;;;;4942463;28;46591;-70
2023/12/02 06:32:12;;;;;;;18.90;8.75;;;0.30;69.10;;;;;;4944023;28;46437;-70
2023/12/02 06:34:37;;;;;;;18.33;10.43;;;0.30;68.90;;;;;;4960400;28;46537;-70
2023/12/02 06:37:03;;;;;;;15.10;6.93;;;0.20;69.40;;;;;;4962311;28;46546;-70
2023/12/02 06:39:29;;;;;;;16.30;9.50;;;0.20;69.50;;;;;;4962598;28;46399;-69
2023/12/02 06:41:55;;;;;;;20.60;9.80;;;0.10;69.40;;;;;;4943141;28;46447;-68
2023/12/02 06:44:20;;;;;;;17.70;9.40;;;0.20;69.60;;;;;;4943488;28;46125;-70
2023/12/02 06:46:46;;;;;;;17.70;9.80;;;0.20;69.60;;;;;;4942672;28;46425;-69
2023/12/02 06:49:11;;;;;;;19.00;10.90;;;0.30;69.60;;;;;;4943811;28;46387;-70
2023/12/02 06:51:37;;;;;;;15.80;9.67;;;0.30;69.20;;;;;;4943775;28;46339;-69
2023/12/02 06:54:02;;;;;;;17.10;9.33;;;0.30;69.00;;;;;;4956513;28;46393;-69
2023/12/02 06:56:28;;;;;;;17.60;9.13;;;0.20;69.50;;;;;;4962507;28;46417;-70
2023/12/02 06:58:54;;;;;;;16.63;9.73;;;0.10;69.40;;;;;;4962625;28;46434;-70
2023/12/02 07:01:29;;;;;;;16.80;8.87;;;0.10;69.40;;;;;;4962893;28;45837;-70
2023/12/02 07:03:56;;;;;;;20.30;10.43;;;0.00;69.40;;;;;;4962960;28;46760;-69
2023/12/02 07:06:22;;;;;;;22.60;13.05;;;-0.10;69.20;;;;;;4962130;28;46957;-67
2023/12/02 07:08:49;;;;;;;37.87;17.00;;;0.00;69.40;;;;;;4962603;28;46642;-70
2023/12/02 07:11:15;;;;;;;41.30;19.60;;;0.10;69.40;;;;;;4961959;28;46525;-68
2023/12/02 07:13:40;;;;;;;46.33;21.97;;;0.20;69.50;;;;;;4962937;28;46418;-69
2023/12/02 07:16:06;;;;;;;41.83;20.43;;;0.40;69.00;;;;;;4961858;28;46318;-69
2023/12/02 07:18:32;;;;;;;19.45;10.75;;;0.30;68.60;;;;;;4962202;28;46382;-70
2023/12/02 07:20:58;;;;;;;21.97;12.80;;;0.30;68.60;;;;;;4962333;28;46454;-69
2023/12/02 07:23:27;;;;;;;19.80;9.27;;;0.20;69.00;;;;;;4961368;28;46379;-68
2023/12/02 07:25:53;;;;;;;16.05;10.27;;;0.30;68.80;;;;;;4958401;28;47106;-67
2023/12/02 07:28:18;;;;;;;22.93;12.37;;;0.30;68.70;;;;;;4943229;28;46489;-70
2023/12/02 07:30:44;;;;;;;18.50;10.70;;;0.40;68.50;;;;;;4943181;28;46438;-68
2023/12/02 07:33:09;;;;;;;24.40;12.50;;;0.30;68.50;;;;;;4943181;28;46454;-68
2023/12/02 07:35:35;;;;;;;12.30;8.20;;;0.20;68.50;;;;;;4942419;28;46548;-68
2023/12/02 07:38:01;;;;;;;18.43;10.70;;;0.00;68.40;;;;;;4946950;28;46861;-70
2023/12/02 07:40:26;;;;;;;15.23;9.00;;;-0.10;69.20;;;;;;4960997;28;46400;-70
2023/12/02 07:42:52;;;;;;;15.30;8.33;;;-0.10;69.20;;;;;;4962287;28;46587;-69
2023/12/02 07:45:17;;;;;;;20.30;9.10;;;-0.20;69.20;;;;;;4961864;28;46152;-70
2023/12/02 07:47:43;;;;;;;19.40;10.37;;;-0.20;69.20;;;;;;4962149;28;46373;-70
2023/12/02 07:50:09;;;;;;;14.20;8.43;;;-0.10;69.30;;;;;;4962328;28;46657;-68
2023/12/02 07:52:34;;;;;;;19.13;9.87;;;0.00;69.30;;;;;;4962323;28;46539;-69
2023/12/02 07:55:00;;;;;;;17.47;9.63;;;0.10;68.90;;;;;;4960057;28;47741;-69
2023/12/02 07:57:26;;;;;;;18.73;10.60;;;0.00;69.20;;;;;;4960926;28;46495;-70
2023/12/02 07:59:51;;;;;;;17.17;10.90;;;0.00;69.30;;;;;;4959538;28;46384;-68
2023/12/02 08:02:17;;;;;;;19.07;10.30;;;-0.10;69.20;;;;;;4943881;28;46460;-68
2023/12/02 08:04:43;;;;;;;19.55;10.13;;;-0.10;69.20;;;;;;4943335;28;46773;-69
2023/12/02 08:07:09;;;;;;;23.63;12.70;;;-0.10;69.30;;;;;;4942858;28;46626;-71
2023/12/02 08:09:35;;;;;;;23.83;12.07;;;0.00;69.30;;;;;;4942459;28;46417;-70
2023/12/02 08:12:00;;;;;;;22.73;10.87;;;0.10;68.80;;;;;;4942795;28;46455;-70
2023/12/02 08:14:26;;;;;;;22.47;11.30;;;0.10;68.40;;;;;;4940124;28;46575;-70
2023/12/02 08:16:52;;;;;;;17.37;10.17;;;0.00;68.40;;;;;;4942535;28;46664;-69
2023/12/02 08:19:17;;;;;;;21.20;11.53;;;0.00;68.80;;;;;;4942115;28;46315;-70
2023/12/02 08:21:43;;;;;;;19.30;10.20;;;0.20;68.50;;;;;;4942242;28;46752;-70
2023/12/02 08:24:09;;;;;;;22.23;11.40;;;0.30;68.00;;;;;;4942002;28;46345;-70
2023/12/02 08:26:34;;;;;;;21.77;11.07;;;0.30;67.80;;;;;;4941925;28;45847;-70
2023/12/02 08:29:00;;;;;;;19.53;10.40;;;0.30;67.70;;;;;;4942409;28;46393;-70
2023/12/02 08:31:25;;;;;;;17.13;9.50;;;0.20;67.80;;;;;;4941700;28;46748;-70
2023/12/02 08:33:51;;;;;;;18.90;10.17;;;0.10;67.80;;;;;;4944231;28;46466;-71
2023/12/02 08:36:16;;;;;;;19.37;10.30;;;0.10;68.10;;;;;;4960506;28;46437;-71
2023/12/02 08:38:42;;;;;;;22.87;12.47;;;0.10;68.00;;;;;;4961466;28;46429;-72
2023/12/02 08:41:08;;;;;;;22.20;11.43;;;0.10;68.00;;;;;;4952080;28;46476;-71
2023/12/02 08:43:34;;;;;;;23.37;11.90;;;0.10;69.10;;;;;;4941305;28;46905;-71
2023/12/02 08:45:59;;;;;;;21.80;12.20;;;0.20;68.30;;;;;;4945534;28;46723;-70
2023/12/02 08:48:25;;;;;;;24.00;12.77;;;0.20;68.20;;;;;;4961739;28;46802;-70
2023/12/02 08:50:50;;;;;;;22.70;12.87;;;0.40;68.00;;;;;;4961161;28;46431;-71
2023/12/02 08:53:16;;;;;;;20.27;11.23;;;0.40;67.60;;;;;;4961606;28;46571;-72
2023/12/02 08:55:42;;;;;;;20.37;10.30;;;0.30;67.10;;;;;;4960912;28;46408;-71
2023/12/02 08:58:08;;;;;;;19.38;9.98;;;0.30;67.50;;;;;;4961121;28;46318;-69
2023/12/02 09:00:33;;;;;;;17.93;10.67;;;0.30;67.90;;;;;;4961523;28;46399;-71
2023/12/02 09:02:59;;;;;;;16.77;9.60;;;0.20;68.10;;;;;;4961013;28;47236;-72
2023/12/02 09:05:25;;;;;;;17.87;9.37;;;0.40;69.30;;;;;;4960846;28;46557;-70
2023/12/02 09:07:50;;;;;;;17.73;10.20;;;0.40;67.50;;;;;;4962002;28;46350;-70
2023/12/02 09:10:16;;;;;;;17.70;9.63;;;0.40;67.60;;;;;;4964974;28;46653;-72
2023/12/02 09:12:42;;;;;;;17.98;9.75;;;0.60;67.50;;;;;;4965486;28;46969;-72
2023/12/02 09:15:28;;;;;;;18.60;10.20;;;0.70;67.10;;;;;;4961656;28;46620;-70
2023/12/02 09:18:07;;;;;;;16.48;9.25;;;0.60;67.00;;;;;;4965041;28;46434;-71
2023/12/02 09:20:40;;;;;;;18.77;10.95;;;0.70;67.10;;;;;;4965469;28;46382;-71
2023/12/02 09:23:08;;;;;;;18.23;10.00;;;0.80;67.00;;;;;;4964871;28;46385;-69
2023/12/02 09:25:38;;;;;;;21.83;11.05;;;0.90;66.80;;;;;;4964818;28;46614;-70
2023/12/02 09:28:05;;;;;;;19.13;11.00;;;0.90;66.70;;;;;;4965029;28;46438;-71
2023/12/02 09:30:34;;;;;;;17.27;9.63;;;0.90;66.70;;;;;;4964638;28;46449;-72
2023/12/02 09:33:00;;;;;;;17.40;9.95;;;1.10;66.60;;;;;;4952997;28;46712;-70
2023/12/02 09:35:27;;;;;;;18.23;9.20;;;1.20;66.50;;;;;;4960062;28;46468;-71
2023/12/02 09:37:56;;;;;;;18.05;10.70;;;1.30;66.30;;;;;;4964756;28;45947;-71
2023/12/02 09:40:23;;;;;;;20.52;9.40;;;1.40;66.10;;;;;;4964524;28;46382;-68
2023/12/02 09:43:25;;;;;;;21.73;10.65;;;1.10;65.90;;;;;;4963744;28;46915;-69
2023/12/02 09:46:02;;;;;;;19.52;10.55;;;0.90;66.10;;;;;;4951641;28;46268;-72
2023/12/02 09:48:34;;;;;;;19.15;10.90;;;0.90;66.50;;;;;;4964312;28;46351;-71
2023/12/02 09:51:21;;;;;;;17.95;10.20;;;0.90;66.10;;;;;;4961790;28;46623;-68
2023/12/02 09:53:49;;;;;;;18.02;9.30;;;0.80;65.90;;;;;;4962258;28;46473;-70
2023/12/02 09:56:20;;;;;;;18.35;9.70;;;0.80;65.80;;;;;;4961601;28;46457;-70
2023/12/02 09:58:47;;;;;;;19.90;11.85;;;0.70;65.70;;;;;;4963017;28;46596;-70
2023/12/02 10:01:21;;;;;;;23.33;12.30;;;0.70;65.60;;;;;;4963782;28;46572;-71
2023/12/02 10:03:53;;;;;;;25.05;10.95;;;0.80;65.50;;;;;;4963989;28;46435;-71
2023/12/02 10:06:21;;;;;;;19.08;10.05;;;1.00;65.20;;;;;;4963662;28;46684;-69
2023/12/02 10:08:51;;;;;;;18.17;10.77;;;1.00;64.60;;;;;;4963875;28;46346;-69
2023/12/02 10:11:45;;;;;;;18.80;9.45;;;1.10;64.70;;;;;;4963450;28;46478;-71
2023/12/02 10:14:11;;;;;;;10.23;6.53;;;1.10;64.50;;;;;;4963501;28;46057;-71
2023/12/02 10:16:40;;;;;;;19.80;9.00;;;0.90;64.30;;;;;;4962842;28;46561;-70
2023/12/02 10:19:12;;;;;;;22.10;9.55;;;0.70;65.00;;;;;;4962481;28;46390;-70
2023/12/02 10:21:43;;;;;;;22.52;10.40;;;0.60;65.30;;;;;;4962108;28;46430;-70
2023/12/02 10:24:11;;;;;;;17.23;9.25;;;0.70;65.20;;;;;;4962833;28;46334;-70
2023/12/02 10:26:41;;;;;;;16.02;9.25;;;0.70;65.00;;;;;;4961949;28;46767;-71
2023/12/02 10:29:31;;;;;;;16.05;10.02;;;0.90;64.90;;;;;;4963195;28;46663;-71
2023/12/02 10:32:14;;;;;;;14.48;8.95;;;0.90;64.60;;;;;;4963598;28;46786;-71
2023/12/02 10:34:51;;;;;;;17.40;9.15;;;0.90;64.50;;;;;;4963111;28;46632;-71
2023/12/02 10:37:20;;;;;;;16.08;8.95;;;0.70;64.10;;;;;;4962581;28;46621;-70
2023/12/02 10:39:51;;;;;;;20.30;9.45;;;0.60;64.80;;;;;;4962588;28;46440;-71
2023/12/02 10:42:18;;;;;;;17.20;8.50;;;0.60;65.00;;;;;;4962149;28;46592;-70
2023/12/02 10:44:48;;;;;;;14.63;7.95;;;0.70;64.50;;;;;;4961579;28;46416;-70
2023/12/02 10:47:16;;;;;;;16.10;9.05;;;0.70;64.70;;;;;;4962409;28;46671;-69
2023/12/02 10:49:43;;;;;;;20.45;10.13;;;0.80;64.20;;;;;;4961852;28;46475;-69
2023/12/02 10:52:12;;;;;;;16.05;8.85;;;1.00;64.10;;;;;;4962265;28;46414;-69
2023/12/02 10:54:41;;;;;;;18.30;9.50;;;1.00;64.00;;;;;;4965409;28;46758;-68
2023/12/02 10:57:08;;;;;;;16.38;9.77;;;1.00;63.70;;;;;;4962047;28;46802;-71
2023/12/02 10:59:40;;;;;;;19.73;10.80;;;1.20;63.40;;;;;;4962010;28;46766;-68
2023/12/02 11:02:29;;;;;;;20.10;10.82;;;1.50;62.90;;;;;;4962116;28;46521;-70
2023/12/02 11:05:27;;;;;;;20.45;10.48;;;1.60;62.70;;;;;;4961922;28;46512;-70
2023/12/02 11:07:55;;;;;;;14.82;8.73;;;1.50;63.00;;;;;;4957576;28;46298;-70
2023/12/02 11:10:34;;;;;;;17.50;9.55;;;1.40;63.20;;;;;;4963079;28;46430;-70
2023/12/02 11:13:04;;;;;;;15.65;8.85;;;1.20;63.50;;;;;;4963607;28;46489;-70
2023/12/02 11:15:38;;;;;;;15.07;8.48;;;1.30;63.60;;;;;;4962809;28;46311;-71
2023/12/02 11:18:05;;;;;;;17.88;10.68;;;1.40;63.20;;;;;;4963321;28;46586;-71
2023/12/02 11:20:49;;;;;;;17.60;9.20;;;1.60;62.70;;;;;;4962641;28;46381;-71
2023/12/02 11:23:51;;;;;;;16.60;9.93;;;1.40;62.50;;;;;;4963057;28;46393;-71
2023/12/02 11:26:42;;;;;;;15.88;8.30;;;1.40;63.00;;;;;;4957375;28;46018;-69
2023/12/02 11:29:27;;;;;;;16.08;8.75;;;1.30;62.50;;;;;;4951775;28;46509;-70
2023/12/02 11:32:15;;;;;;;18.90;9.05;;;1.30;62.90;;;;;;4946388;28;46533;-70
2023/12/02 11:35:02;;;;;;;18.73;9.50;;;1.10;62.40;;;;;;4947372;28;46667;-70
2023/12/02 11:37:58;;;;;;;17.73;9.35;;;1.10;62.80;;;;;;4947930;28;48315;-70
2023/12/02 11:40:28;;;;;;;15.60;8.82;;;1.10;63.00;;;;;;4945491;28;46221;-70
2023/12/02 11:43:19;;;;;;;15.40;8.48;;;1.10;63.10;;;;;;4947941;28;46472;-70
2023/12/02 11:45:55;;;;;;;19.42;9.00;;;1.30;63.00;;;;;;4947323;28;46426;-70
2023/12/02 11:48:40;;;;;;;15.10;8.40;;;1.10;63.90;;;;;;4949735;28;46533;-69
2023/12/02 11:51:24;;;;;;;16.15;8.00;;;0.90;63.10;;;;;;4949168;28;46774;-69
2023/12/02 11:54:18;;;;;;;15.30;8.40;;;0.90;63.00;;;;;;4949664;28;46382;-68
2023/12/02 11:57:00;;;;;;;16.63;9.63;;;0.80;63.10;;;;;;4948173;28;46433;-70
2023/12/02 11:59:31;;;;;;;14.40;8.85;;;1.00;63.00;;;;;;4947763;28;46265;-70
2023/12/02 12:02:15;;;;;;;18.00;9.85;;;1.30;62.30;;;;;;4942546;28;46245;-69
2023/12/02 12:05:11;;;;;;;16.33;9.20;;;1.60;61.60;;;;;;4950209;28;46483;-70
2023/12/02 12:08:01;;;;;;;14.45;9.10;;;1.80;61.50;;;;;;4944378;28;46771;-69
2023/12/02 12:10:36;;;;;;;15.93;8.20;;;2.00;60.90;;;;;;4948030;28;46655;-72
2023/12/02 12:13:03;;;;;;;15.90;8.95;;;2.00;60.70;;;;;;4945582;28;46477;-70
2023/12/02 12:15:30;;;;;;;14.43;8.45;;;2.00;60.60;;;;;;4947391;28;46381;-69
2023/12/02 12:17:55;;;;;;;17.05;8.77;;;1.90;60.60;;;;;;4952091;28;45983;-70
2023/12/02 12:20:23;;;;;;;12.40;8.30;;;1.90;61.10;;;;;;4949838;28;46431;-70
2023/12/02 12:22:48;;;;;;;14.15;8.23;;;1.70;61.40;;;;;;4948633;28;46501;-69
2023/12/02 12:25:14;;;;;;;15.77;8.70;;;1.40;62.50;;;;;;4951031;28;46503;-70
2023/12/02 12:27:40;;;;;;;13.93;8.25;;;1.10;63.10;;;;;;4951972;28;46668;-70
2023/12/02 12:30:07;;;;;;;14.80;8.65;;;1.20;63.40;;;;;;4949041;28;46494;-72
2023/12/02 12:32:32;;;;;;;15.38;9.38;;;1.30;62.90;;;;;;4948429;28;46613;-71
2023/12/02 12:34:58;;;;;;;15.40;9.43;;;1.30;62.40;;;;;;4948642;28;46296;-68
2023/12/02 12:37:24;;;;;;;18.43;9.90;;;1.40;62.20;;;;;;4948363;28;46452;-68
2023/12/02 12:39:49;;;;;;;17.53;9.53;;;1.30;62.10;;;;;;4946352;28;46484;-70
2023/12/02 12:42:19;;;;;;;16.85;9.55;;;1.30;62.00;;;;;;4951286;28;46509;-69
2023/12/02 12:44:46;;;;;;;18.27;9.25;;;1.40;61.70;;;;;;4943946;28;46651;-68
2023/12/02 12:47:12;;;;;;;14.75;9.07;;;1.40;61.60;;;;;;4948461;28;46545;-68
2023/12/02 12:49:39;;;;;;;15.65;9.60;;;1.30;61.50;;;;;;4949487;28;46486;-69